sensor_id;sensor_type;location;lat;lon;timestamp;temperature;humidity
11538;DHT22;50159;49.426;11.182;2023-07-13T00:01:54;21.60;68.20
11538;DHT22;50159;49.426;11.182;2023-07-13T00:04:23;21.60;68.40
11538;DHT22;50159;49.426;11.182;2023-07-13T00:06:52;21.70;68.40
11538;DHT22;50159;49.426;11.182;2023-07-13T00:09:20;21.70;68.80
11538;DHT22;50159;49.426;11.182;2023-07-13T00:11:52;21.60;69.00
11538;DHT22;50159;49.426;11.182;2023-07-13T00:14:21;21.60;68.90
11538;DHT22;50159;49.426;11.182;2023-07-13T00:16:48;21.60;69.20
11538;DHT22;50159;49.426;11.182;2023-07-13T00:19:15;21.60;69.50
11538;DHT22;50159;49.426;11.182;2023-07-13T00:21:42;21.60;69.60
11538;DHT22;50159;49.426;11.182;2023-07-13T00:24:12;21.60;69.50
11538;DHT22;50159;49.426;11.182;2023-07-13T00:26:42;21.60;69.70
11538;DHT22;50159;49.426;11.182;2023-07-13T00:29:13;21.50;69.10
11538;DHT22;50159;49.426;11.182;2023-07-13T00:31:40;21.50;69.40
11538;DHT22;50159;49.426;11.182;2023-07-13T00:34:07;21.50;69.70
11538;DHT22;50159;49.426;11.182;2023-07-13T00:36:34;21.50;69.60
11538;DHT22;50159;49.426;11.182;2023-07-13T00:39:02;21.50;69.80
11538;DHT22;50159;49.426;11.182;2023-07-13T00:41:31;21.40;70.40
11538;DHT22;50159;49.426;11.182;2023-07-13T00:43:58;21.40;70.00
11538;DHT22;50159;49.426;11.182;2023-07-13T00:46:26;21.40;70.20
11538;DHT22;50159;49.426;11.182;2023-07-13T00:48:59;21.40;70.20
11538;DHT22;50159;49.426;11.182;2023-07-13T00:51:36;21.30;70.20
11538;DHT22;50159;49.426;11.182;2023-07-13T00:54:11;21.30;70.20
11538;DHT22;50159;49.426;11.182;2023-07-13T00:56:43;21.30;70.20
11538;DHT22;50159;49.426;11.182;2023-07-13T00:59:15;21.30;70.20
11538;DHT22;50159;49.426;11.182;2023-07-13T01:01:44;21.20;70.00
11538;DHT22;50159;49.426;11.182;2023-07-13T01:04:11;21.20;70.30
11538;DHT22;50159;49.426;11.182;2023-07-13T01:06:39;21.20;70.60
11538;DHT22;50159;49.426;11.182;2023-07-13T01:09:08;21.20;70.60
11538;DHT22;50159;49.426;11.182;2023-07-13T01:11:35;21.10;70.60
11538;DHT22;50159;49.426;11.182;2023-07-13T01:14:02;21.10;70.60
11538;DHT22;50159;49.426;11.182;2023-07-13T01:16:32;21.10;70.60
11538;DHT22;50159;49.426;11.182;2023-07-13T01:19:05;21.10;71.10
11538;DHT22;50159;49.426;11.182;2023-07-13T01:21:41;21.00;71.40
11538;DHT22;50159;49.426;11.182;2023-07-13T01:24:09;20.90;71.60
11538;DHT22;50159;49.426;11.182;2023-07-13T01:26:36;20.80;71.40
11538;DHT22;50159;49.426;11.182;2023-07-13T01:29:03;20.80;71.40
11538;DHT22;50159;49.426;11.182;2023-07-13T01:31:30;20.80;71.60
11538;DHT22;50159;49.426;11.182;2023-07-13T01:33:56;20.70;71.80
11538;DHT22;50159;49.426;11.182;2023-07-13T01:36:24;20.70;72.60
11538;DHT22;50159;49.426;11.182;2023-07-13T01:38:51;20.60;72.20
11538;DHT22;50159;49.426;11.182;2023-07-13T01:41:18;20.60;72.20
11538;DHT22;50159;49.426;11.182;2023-07-13T01:43:45;20.50;72.20
11538;DHT22;50159;49.426;11.182;2023-07-13T01:46:11;20.50;72.40
11538;DHT22;50159;49.426;11.182;2023-07-13T01:48:49;20.40;72.90
11538;DHT22;50159;49.426;11.182;2023-07-13T01:51:17;20.40;73.20
11538;DHT22;50159;49.426;11.182;2023-07-13T01:53:44;20.30;73.60
11538;DHT22;50159;49.426;11.182;2023-07-13T01:56:12;20.30;74.20
11538;DHT22;50159;49.426;11.182;2023-07-13T01:58:39;20.20;74.50
11538;DHT22;50159;49.426;11.182;2023-07-13T02:01:06;20.10;74.90
11538;DHT22;50159;49.426;11.182;2023-07-13T02:03:33;20.00;75.10
11538;DHT22;50159;49.426;11.182;2023-07-13T02:06:00;20.00;75.30
11538;DHT22;50159;49.426;11.182;2023-07-13T02:08:26;19.90;74.70
11538;DHT22;50159;49.426;11.182;2023-07-13T02:10:53;19.90;74.60
11538;DHT22;50159;49.426;11.182;2023-07-13T02:13:23;19.90;75.20
11538;DHT22;50159;49.426;11.182;2023-07-13T02:15:51;19.90;75.90
11538;DHT22;50159;49.426;11.182;2023-07-13T02:18:18;19.80;76.10
11538;DHT22;50159;49.426;11.182;2023-07-13T02:20:45;19.70;76.20
11538;DHT22;50159;49.426;11.182;2023-07-13T02:23:12;19.70;75.50
11538;DHT22;50159;49.426;11.182;2023-07-13T02:25:39;19.60;75.30
11538;DHT22;50159;49.426;11.182;2023-07-13T02:28:06;19.70;76.00
11538;DHT22;50159;49.426;11.182;2023-07-13T02:30:34;19.60;76.50
11538;DHT22;50159;49.426;11.182;2023-07-13T02:33:01;19.60;76.80
11538;DHT22;50159;49.426;11.182;2023-07-13T02:35:28;19.50;76.50
11538;DHT22;50159;49.426;11.182;2023-07-13T02:37:55;19.50;76.60
11538;DHT22;50159;49.426;11.182;2023-07-13T02:40:22;19.40;77.60
11538;DHT22;50159;49.426;11.182;2023-07-13T02:42:49;19.40;77.20
11538;DHT22;50159;49.426;11.182;2023-07-13T02:45:16;19.30;77.00
11538;DHT22;50159;49.426;11.182;2023-07-13T02:47:43;19.30;77.20
11538;DHT22;50159;49.426;11.182;2023-07-13T02:50:10;19.30;77.60
11538;DHT22;50159;49.426;11.182;2023-07-13T02:52:37;19.20;77.70
11538;DHT22;50159;49.426;11.182;2023-07-13T02:55:04;19.20;77.20
11538;DHT22;50159;49.426;11.182;2023-07-13T02:57:31;19.20;77.00
11538;DHT22;50159;49.426;11.182;2023-07-13T03:00:00;19.10;77.20
11538;DHT22;50159;49.426;11.182;2023-07-13T03:02:27;19.10;77.20
11538;DHT22;50159;49.426;11.182;2023-07-13T03:04:55;19.00;77.00
11538;DHT22;50159;49.426;11.182;2023-07-13T03:07:22;19.00;76.90
11538;DHT22;50159;49.426;11.182;2023-07-13T03:09:54;18.90;76.60
11538;DHT22;50159;49.426;11.182;2023-07-13T03:12:23;18.90;77.50
11538;DHT22;50159;49.426;11.182;2023-07-13T03:14:50;18.90;77.60
11538;DHT22;50159;49.426;11.182;2023-07-13T03:17:18;18.90;77.60
11538;DHT22;50159;49.426;11.182;2023-07-13T03:19:45;18.80;77.80
11538;DHT22;50159;49.426;11.182;2023-07-13T03:22:19;18.80;78.10
11538;DHT22;50159;49.426;11.182;2023-07-13T03:24:48;18.70;78.10
11538;DHT22;50159;49.426;11.182;2023-07-13T03:27:17;18.70;78.70
11538;DHT22;50159;49.426;11.182;2023-07-13T03:29:44;18.60;78.90
11538;DHT22;50159;49.426;11.182;2023-07-13T03:32:11;18.60;79.30
11538;DHT22;50159;49.426;11.182;2023-07-13T03:34:38;18.60;79.80
11538;DHT22;50159;49.426;11.182;2023-07-13T03:37:05;18.50;79.90
11538;DHT22;50159;49.426;11.182;2023-07-13T03:39:32;18.50;79.80
11538;DHT22;50159;49.426;11.182;2023-07-13T03:41:59;18.40;79.40
11538;DHT22;50159;49.426;11.182;2023-07-13T03:44:26;18.30;79.20
11538;DHT22;50159;49.426;11.182;2023-07-13T03:46:52;18.30;79.20
11538;DHT22;50159;49.426;11.182;2023-07-13T03:49:19;18.30;78.90
11538;DHT22;50159;49.426;11.182;2023-07-13T03:51:46;18.30;79.00
11538;DHT22;50159;49.426;11.182;2023-07-13T03:54:14;18.40;79.10
11538;DHT22;50159;49.426;11.182;2023-07-13T03:56:41;18.40;79.40
11538;DHT22;50159;49.426;11.182;2023-07-13T03:59:08;18.40;79.20
11538;DHT22;50159;49.426;11.182;2023-07-13T04:01:35;18.30;78.70
11538;DHT22;50159;49.426;11.182;2023-07-13T04:04:02;18.20;77.90
11538;DHT22;50159;49.426;11.182;2023-07-13T04:06:30;18.20;78.00
11538;DHT22;50159;49.426;11.182;2023-07-13T04:08:59;18.30;78.30
11538;DHT22;50159;49.426;11.182;2023-07-13T04:11:30;18.20;78.10
11538;DHT22;50159;49.426;11.182;2023-07-13T04:13:58;18.20;78.30
11538;DHT22;50159;49.426;11.182;2023-07-13T04:16:25;18.30;78.80
11538;DHT22;50159;49.426;11.182;2023-07-13T04:18:52;18.30;79.00
11538;DHT22;50159;49.426;11.182;2023-07-13T04:21:28;18.20;78.70
11538;DHT22;50159;49.426;11.182;2023-07-13T04:23:57;18.30;78.50
11538;DHT22;50159;49.426;11.182;2023-07-13T04:26:24;18.30;78.00
11538;DHT22;50159;49.426;11.182;2023-07-13T04:28:51;18.30;78.30
11538;DHT22;50159;49.426;11.182;2023-07-13T04:31:19;18.30;78.30
11538;DHT22;50159;49.426;11.182;2023-07-13T04:33:46;18.30;79.10
11538;DHT22;50159;49.426;11.182;2023-07-13T04:36:16;18.30;78.70
11538;DHT22;50159;49.426;11.182;2023-07-13T04:38:43;18.30;78.80
11538;DHT22;50159;49.426;11.182;2023-07-13T04:41:10;18.20;78.50
11538;DHT22;50159;49.426;11.182;2023-07-13T04:43:36;18.20;78.80
11538;DHT22;50159;49.426;11.182;2023-07-13T04:46:08;18.20;79.70
11538;DHT22;50159;49.426;11.182;2023-07-13T04:48:38;18.30;80.40
11538;DHT22;50159;49.426;11.182;2023-07-13T04:51:06;18.30;80.50
11538;DHT22;50159;49.426;11.182;2023-07-13T04:53:33;18.30;80.00
11538;DHT22;50159;49.426;11.182;2023-07-13T04:56:02;18.40;80.10
11538;DHT22;50159;49.426;11.182;2023-07-13T04:58:30;18.40;79.70
11538;DHT22;50159;49.426;11.182;2023-07-13T05:01:04;18.40;79.70
11538;DHT22;50159;49.426;11.182;2023-07-13T05:03:33;18.50;79.40
11538;DHT22;50159;49.426;11.182;2023-07-13T05:06:03;18.60;79.10
11538;DHT22;50159;49.426;11.182;2023-07-13T05:08:33;18.60;78.90
11538;DHT22;50159;49.426;11.182;2023-07-13T05:11:01;18.70;79.00
11538;DHT22;50159;49.426;11.182;2023-07-13T05:13:30;18.80;78.80
11538;DHT22;50159;49.426;11.182;2023-07-13T05:15:59;18.90;78.00
11538;DHT22;50159;49.426;11.182;2023-07-13T05:18:28;19.00;77.30
11538;DHT22;50159;49.426;11.182;2023-07-13T05:21:01;19.10;76.40
11538;DHT22;50159;49.426;11.182;2023-07-13T05:23:30;19.10;75.00
11538;DHT22;50159;49.426;11.182;2023-07-13T05:25:58;19.20;74.50
11538;DHT22;50159;49.426;11.182;2023-07-13T05:28:26;19.30;74.40
11538;DHT22;50159;49.426;11.182;2023-07-13T05:30:55;19.30;74.30
11538;DHT22;50159;49.426;11.182;2023-07-13T05:33:23;19.30;73.00
11538;DHT22;50159;49.426;11.182;2023-07-13T05:35:50;19.30;72.50
11538;DHT22;50159;49.426;11.182;2023-07-13T05:38:17;19.40;72.20
11538;DHT22;50159;49.426;11.182;2023-07-13T05:40:45;19.50;72.10
11538;DHT22;50159;49.426;11.182;2023-07-13T05:43:13;19.60;71.50
11538;DHT22;50159;49.426;11.182;2023-07-13T05:45:40;19.80;71.30
11538;DHT22;50159;49.426;11.182;2023-07-13T05:48:07;19.90;71.50
11538;DHT22;50159;49.426;11.182;2023-07-13T05:50:34;20.00;70.20
11538;DHT22;50159;49.426;11.182;2023-07-13T05:53:01;20.00;69.00
11538;DHT22;50159;49.426;11.182;2023-07-13T05:55:28;20.10;68.50
11538;DHT22;50159;49.426;11.182;2023-07-13T05:57:55;20.10;68.50
11538;DHT22;50159;49.426;11.182;2023-07-13T06:00:24;20.20;68.20
11538;DHT22;50159;49.426;11.182;2023-07-13T06:02:51;20.20;68.30
11538;DHT22;50159;49.426;11.182;2023-07-13T06:05:19;20.20;68.30
11538;DHT22;50159;49.426;11.182;2023-07-13T06:07:46;20.20;68.80
11538;DHT22;50159;49.426;11.182;2023-07-13T06:10:13;20.20;69.00
11538;DHT22;50159;49.426;11.182;2023-07-13T06:12:40;20.30;69.00
11538;DHT22;50159;49.426;11.182;2023-07-13T06:15:07;20.40;69.40
11538;DHT22;50159;49.426;11.182;2023-07-13T06:17:34;20.40;69.00
11538;DHT22;50159;49.426;11.182;2023-07-13T06:20:02;20.50;68.30
11538;DHT22;50159;49.426;11.182;2023-07-13T06:22:29;20.60;68.40
11538;DHT22;50159;49.426;11.182;2023-07-13T06:24:56;20.60;67.00
11538;DHT22;50159;49.426;11.182;2023-07-13T06:27:22;20.60;66.60
11538;DHT22;50159;49.426;11.182;2023-07-13T06:29:49;20.60;66.00
11538;DHT22;50159;49.426;11.182;2023-07-13T06:32:16;20.50;66.60
11538;DHT22;50159;49.426;11.182;2023-07-13T06:34:43;20.50;66.00
11538;DHT22;50159;49.426;11.182;2023-07-13T06:37:11;20.60;66.10
11538;DHT22;50159;49.426;11.182;2023-07-13T06:39:38;20.80;65.70
11538;DHT22;50159;49.426;11.182;2023-07-13T06:42:05;20.90;64.80
11538;DHT22;50159;49.426;11.182;2023-07-13T06:44:32;21.00;64.40
11538;DHT22;50159;49.426;11.182;2023-07-13T06:46:59;21.20;64.10
11538;DHT22;50159;49.426;11.182;2023-07-13T06:49:26;21.30;64.10
11538;DHT22;50159;49.426;11.182;2023-07-13T06:51:53;21.30;64.10
11538;DHT22;50159;49.426;11.182;2023-07-13T06:54:20;21.30;64.80
11538;DHT22;50159;49.426;11.182;2023-07-13T06:56:47;21.40;65.80
11538;DHT22;50159;49.426;11.182;2023-07-13T06:59:13;21.30;63.90
11538;DHT22;50159;49.426;11.182;2023-07-13T07:01:40;21.20;63.30
11538;DHT22;50159;49.426;11.182;2023-07-13T07:04:07;21.20;64.60
11538;DHT22;50159;49.426;11.182;2023-07-13T07:06:35;21.10;64.60
11538;DHT22;50159;49.426;11.182;2023-07-13T07:09:02;21.00;64.10
11538;DHT22;50159;49.426;11.182;2023-07-13T07:11:29;20.90;64.00
11538;DHT22;50159;49.426;11.182;2023-07-13T07:13:55;20.90;64.10
11538;DHT22;50159;49.426;11.182;2023-07-13T07:16:24;21.10;64.30
11538;DHT22;50159;49.426;11.182;2023-07-13T07:18:51;21.30;64.20
11538;DHT22;50159;49.426;11.182;2023-07-13T07:21:18;21.60;63.70
11538;DHT22;50159;49.426;11.182;2023-07-13T07:23:46;21.80;63.50
11538;DHT22;50159;49.426;11.182;2023-07-13T07:26:12;22.10;62.70
11538;DHT22;50159;49.426;11.182;2023-07-13T07:28:39;22.20;61.80
11538;DHT22;50159;49.426;11.182;2023-07-13T07:31:11;22.20;61.60
11538;DHT22;50159;49.426;11.182;2023-07-13T07:33:41;22.30;61.00
11538;DHT22;50159;49.426;11.182;2023-07-13T07:36:08;22.60;61.40
11538;DHT22;50159;49.426;11.182;2023-07-13T07:38:38;22.80;60.50
11538;DHT22;50159;49.426;11.182;2023-07-13T07:41:05;22.80;59.80
11538;DHT22;50159;49.426;11.182;2023-07-13T07:43:35;22.80;59.60
11538;DHT22;50159;49.426;11.182;2023-07-13T07:46:02;22.90;59.40
11538;DHT22;50159;49.426;11.182;2023-07-13T07:48:31;23.00;59.60
11538;DHT22;50159;49.426;11.182;2023-07-13T07:50:58;23.00;58.80
11538;DHT22;50159;49.426;11.182;2023-07-13T07:53:24;22.90;58.20
11538;DHT22;50159;49.426;11.182;2023-07-13T07:55:51;22.60;58.60
11538;DHT22;50159;49.426;11.182;2023-07-13T07:58:21;22.30;58.30
11538;DHT22;50159;49.426;11.182;2023-07-13T08:00:51;22.20;60.00
11538;DHT22;50159;49.426;11.182;2023-07-13T08:03:21;22.20;59.80
11538;DHT22;50159;49.426;11.182;2023-07-13T08:05:53;22.20;59.30
11538;DHT22;50159;49.426;11.182;2023-07-13T08:08:23;22.30;59.70
11538;DHT22;50159;49.426;11.182;2023-07-13T08:10:51;22.30;59.30
11538;DHT22;50159;49.426;11.182;2023-07-13T08:13:23;22.30;58.90
11538;DHT22;50159;49.426;11.182;2023-07-13T08:15:50;22.60;58.70
11538;DHT22;50159;49.426;11.182;2023-07-13T08:18:17;22.80;57.60
11538;DHT22;50159;49.426;11.182;2023-07-13T08:20:44;22.90;57.00
11538;DHT22;50159;49.426;11.182;2023-07-13T08:23:11;23.10;57.00
11538;DHT22;50159;49.426;11.182;2023-07-13T08:25:38;23.30;56.60
11538;DHT22;50159;49.426;11.182;2023-07-13T08:28:05;23.40;56.30
11538;DHT22;50159;49.426;11.182;2023-07-13T08:30:32;23.50;55.40
11538;DHT22;50159;49.426;11.182;2023-07-13T08:32:58;23.60;53.90
11538;DHT22;50159;49.426;11.182;2023-07-13T08:35:25;23.70;53.60
11538;DHT22;50159;49.426;11.182;2023-07-13T08:37:52;23.80;53.40
11538;DHT22;50159;49.426;11.182;2023-07-13T08:40:23;24.00;53.90
11538;DHT22;50159;49.426;11.182;2023-07-13T08:42:58;24.30;53.80
11538;DHT22;50159;49.426;11.182;2023-07-13T08:45:28;24.40;52.00
11538;DHT22;50159;49.426;11.182;2023-07-13T08:48:10;24.40;49.90
11538;DHT22;50159;49.426;11.182;2023-07-13T08:53:48;24.50;46.50
11538;DHT22;50159;49.426;11.182;2023-07-13T08:56:22;24.60;47.30
11538;DHT22;50159;49.426;11.182;2023-07-13T08:59:00;24.60;47.80
11538;DHT22;50159;49.426;11.182;2023-07-13T09:16:24;24.90;44.60
11538;DHT22;50159;49.426;11.182;2023-07-13T09:18:54;24.80;44.70
11538;DHT22;50159;49.426;11.182;2023-07-13T09:21:36;24.70;45.60
11538;DHT22;50159;49.426;11.182;2023-07-13T09:26:58;24.50;44.80
11538;DHT22;50159;49.426;11.182;2023-07-13T09:29:30;24.30;46.20
11538;DHT22;50159;49.426;11.182;2023-07-13T09:32:06;24.30;45.70
11538;DHT22;50159;49.426;11.182;2023-07-13T09:34:37;24.30;45.50
11538;DHT22;50159;49.426;11.182;2023-07-13T09:37:04;24.40;45.60
11538;DHT22;50159;49.426;11.182;2023-07-13T09:39:37;24.60;45.90
11538;DHT22;50159;49.426;11.182;2023-07-13T09:42:15;24.60;45.40
11538;DHT22;50159;49.426;11.182;2023-07-13T09:47:22;24.70;46.50
11538;DHT22;50159;49.426;11.182;2023-07-13T09:49:57;24.70;45.30
11538;DHT22;50159;49.426;11.182;2023-07-13T09:55:31;25.00;44.60
11538;DHT22;50159;49.426;11.182;2023-07-13T09:58:22;25.20;43.40
11538;DHT22;50159;49.426;11.182;2023-07-13T10:00:57;25.60;44.70
11538;DHT22;50159;49.426;11.182;2023-07-13T10:03:31;25.90;44.20
11538;DHT22;50159;49.426;11.182;2023-07-13T10:06:18;26.10;42.80
11538;DHT22;50159;49.426;11.182;2023-07-13T10:08:50;25.80;39.10
11538;DHT22;50159;49.426;11.182;2023-07-13T10:11:23;25.50;40.30
11538;DHT22;50159;49.426;11.182;2023-07-13T10:13:55;25.60;43.60
11538;DHT22;50159;49.426;11.182;2023-07-13T10:16:25;25.80;41.10
11538;DHT22;50159;49.426;11.182;2023-07-13T10:19:03;25.90;40.40
11538;DHT22;50159;49.426;11.182;2023-07-13T10:21:43;25.90;39.80
11538;DHT22;50159;49.426;11.182;2023-07-13T10:24:20;26.00;40.80
11538;DHT22;50159;49.426;11.182;2023-07-13T10:26:57;26.30;41.40
11538;DHT22;50159;49.426;11.182;2023-07-13T10:29:54;26.50;40.80
11538;DHT22;50159;49.426;11.182;2023-07-13T10:32:27;26.60;40.20
11538;DHT22;50159;49.426;11.182;2023-07-13T10:34:56;26.70;38.70
11538;DHT22;50159;49.426;11.182;2023-07-13T10:37:40;26.70;37.90
11538;DHT22;50159;49.426;11.182;2023-07-13T10:40:37;26.70;38.20
11538;DHT22;50159;49.426;11.182;2023-07-13T10:43:27;26.80;38.30
11538;DHT22;50159;49.426;11.182;2023-07-13T10:45:59;26.70;38.30
11538;DHT22;50159;49.426;11.182;2023-07-13T10:48:28;26.50;38.90
11538;DHT22;50159;49.426;11.182;2023-07-13T10:50:58;26.60;39.60
11538;DHT22;50159;49.426;11.182;2023-07-13T10:53:32;26.60;38.70
11538;DHT22;50159;49.426;11.182;2023-07-13T10:56:06;26.60;39.80
11538;DHT22;50159;49.426;11.182;2023-07-13T10:58:45;26.80;39.70
11538;DHT22;50159;49.426;11.182;2023-07-13T11:01:16;27.10;39.20
11538;DHT22;50159;49.426;11.182;2023-07-13T11:06:33;27.30;38.40
11538;DHT22;50159;49.426;11.182;2023-07-13T11:09:32;27.30;37.50
11538;DHT22;50159;49.426;11.182;2023-07-13T11:12:26;27.00;38.50
11538;DHT22;50159;49.426;11.182;2023-07-13T11:22:49;27.90;37.60
11538;DHT22;50159;49.426;11.182;2023-07-13T11:28:17;28.00;35.60
11538;DHT22;50159;49.426;11.182;2023-07-13T11:33:44;27.90;35.20
11538;DHT22;50159;49.426;11.182;2023-07-13T11:36:17;27.60;36.20
11538;DHT22;50159;49.426;11.182;2023-07-13T11:39:19;27.20;36.80
11538;DHT22;50159;49.426;11.182;2023-07-13T11:41:56;26.80;38.10
11538;DHT22;50159;49.426;11.182;2023-07-13T11:44:28;27.00;39.20
11538;DHT22;50159;49.426;11.182;2023-07-13T11:47:20;27.50;39.70
11538;DHT22;50159;49.426;11.182;2023-07-13T11:49:52;27.90;39.10
11538;DHT22;50159;49.426;11.182;2023-07-13T11:52:31;27.90;37.00
11538;DHT22;50159;49.426;11.182;2023-07-13T11:55:02;27.70;36.80
11538;DHT22;50159;49.426;11.182;2023-07-13T11:57:32;27.60;36.80
11538;DHT22;50159;49.426;11.182;2023-07-13T12:00:14;27.60;37.40
11538;DHT22;50159;49.426;11.182;2023-07-13T12:02:57;27.50;37.90
11538;DHT22;50159;49.426;11.182;2023-07-13T12:05:26;27.70;38.50
11538;DHT22;50159;49.426;11.182;2023-07-13T12:07:54;28.00;36.60
11538;DHT22;50159;49.426;11.182;2023-07-13T12:10:25;28.30;37.40
11538;DHT22;50159;49.426;11.182;2023-07-13T12:12:57;28.40;35.90
11538;DHT22;50159;49.426;11.182;2023-07-13T12:15:41;28.40;33.70
11538;DHT22;50159;49.426;11.182;2023-07-13T12:18:18;28.50;35.50
11538;DHT22;50159;49.426;11.182;2023-07-13T12:20:47;28.70;34.00
11538;DHT22;50159;49.426;11.182;2023-07-13T12:23:45;28.40;32.90
11538;DHT22;50159;49.426;11.182;2023-07-13T12:26:17;28.30;34.30
11538;DHT22;50159;49.426;11.182;2023-07-13T12:28:47;28.00;34.10
11538;DHT22;50159;49.426;11.182;2023-07-13T12:31:37;27.70;35.40
11538;DHT22;50159;49.426;11.182;2023-07-13T12:34:09;27.50;36.60
11538;DHT22;50159;49.426;11.182;2023-07-13T12:36:52;27.60;36.80
11538;DHT22;50159;49.426;11.182;2023-07-13T12:39:34;27.80;36.80
11538;DHT22;50159;49.426;11.182;2023-07-13T12:42:24;27.60;35.80
11538;DHT22;50159;49.426;11.182;2023-07-13T12:45:01;27.80;38.00
11538;DHT22;50159;49.426;11.182;2023-07-13T12:47:40;28.20;37.40
11538;DHT22;50159;49.426;11.182;2023-07-13T12:50:18;28.40;35.10
11538;DHT22;50159;49.426;11.182;2023-07-13T12:52:53;28.00;34.40
11538;DHT22;50159;49.426;11.182;2023-07-13T12:55:23;27.80;36.30
11538;DHT22;50159;49.426;11.182;2023-07-13T12:57:54;27.80;36.30
11538;DHT22;50159;49.426;11.182;2023-07-13T13:00:32;28.20;36.50
11538;DHT22;50159;49.426;11.182;2023-07-13T13:03:20;28.30;36.00
11538;DHT22;50159;49.426;11.182;2023-07-13T13:06:20;28.20;35.70
11538;DHT22;50159;49.426;11.182;2023-07-13T13:08:57;28.00;35.00
11538;DHT22;50159;49.426;11.182;2023-07-13T13:11:26;27.90;36.50
11538;DHT22;50159;49.426;11.182;2023-07-13T13:13:58;27.90;38.10
11538;DHT22;50159;49.426;11.182;2023-07-13T13:16:42;28.00;38.50
11538;DHT22;50159;49.426;11.182;2023-07-13T13:19:28;28.20;37.80
11538;DHT22;50159;49.426;11.182;2023-07-13T13:21:56;28.60;37.10
11538;DHT22;50159;49.426;11.182;2023-07-13T13:24:27;28.90;37.30
11538;DHT22;50159;49.426;11.182;2023-07-13T13:26:55;29.00;36.70
11538;DHT22;50159;49.426;11.182;2023-07-13T13:29:26;28.80;36.90
11538;DHT22;50159;49.426;11.182;2023-07-13T13:31:54;28.60;35.50
11538;DHT22;50159;49.426;11.182;2023-07-13T13:34:24;28.50;36.50
11538;DHT22;50159;49.426;11.182;2023-07-13T13:36:53;28.90;36.90
11538;DHT22;50159;49.426;11.182;2023-07-13T13:39:32;29.40;36.90
11538;DHT22;50159;49.426;11.182;2023-07-13T13:42:01;29.50;36.80
11538;DHT22;50159;49.426;11.182;2023-07-13T13:44:28;29.00;35.80
11538;DHT22;50159;49.426;11.182;2023-07-13T13:46:55;28.30;36.10
11538;DHT22;50159;49.426;11.182;2023-07-13T13:49:24;27.90;37.00
11538;DHT22;50159;49.426;11.182;2023-07-13T13:51:53;27.90;38.30
11538;DHT22;50159;49.426;11.182;2023-07-13T13:54:22;28.50;39.70
11538;DHT22;50159;49.426;11.182;2023-07-13T13:56:51;28.90;37.30
11538;DHT22;50159;49.426;11.182;2023-07-13T13:59:19;29.20;35.30
11538;DHT22;50159;49.426;11.182;2023-07-13T14:01:47;29.00;34.00
11538;DHT22;50159;49.426;11.182;2023-07-13T14:04:21;29.00;35.30
11538;DHT22;50159;49.426;11.182;2023-07-13T14:06:49;29.20;36.20
11538;DHT22;50159;49.426;11.182;2023-07-13T14:09:18;29.60;36.00
11538;DHT22;50159;49.426;11.182;2023-07-13T14:11:47;29.70;35.80
11538;DHT22;50159;49.426;11.182;2023-07-13T14:14:20;29.60;35.30
11538;DHT22;50159;49.426;11.182;2023-07-13T14:16:51;29.40;33.80
11538;DHT22;50159;49.426;11.182;2023-07-13T14:19:20;28.90;34.10
11538;DHT22;50159;49.426;11.182;2023-07-13T14:21:47;28.60;35.20
11538;DHT22;50159;49.426;11.182;2023-07-13T14:24:15;28.00;36.10
11538;DHT22;50159;49.426;11.182;2023-07-13T14:26:43;28.10;38.20
11538;DHT22;50159;49.426;11.182;2023-07-13T14:29:18;28.30;36.80
11538;DHT22;50159;49.426;11.182;2023-07-13T14:31:50;28.50;36.20
11538;DHT22;50159;49.426;11.182;2023-07-13T14:34:17;28.50;34.10
11538;DHT22;50159;49.426;11.182;2023-07-13T14:36:46;28.10;35.00
11538;DHT22;50159;49.426;11.182;2023-07-13T14:39:18;27.60;35.90
11538;DHT22;50159;49.426;11.182;2023-07-13T14:41:49;27.10;36.80
11538;DHT22;50159;49.426;11.182;2023-07-13T14:44:22;26.90;38.00
11538;DHT22;50159;49.426;11.182;2023-07-13T14:46:52;26.90;39.30
11538;DHT22;50159;49.426;11.182;2023-07-13T14:49:29;26.80;39.40
11538;DHT22;50159;49.426;11.182;2023-07-13T14:52:00;26.80;39.80
11538;DHT22;50159;49.426;11.182;2023-07-13T14:54:28;26.80;39.30
11538;DHT22;50159;49.426;11.182;2023-07-13T14:56:55;28.00;39.20
11538;DHT22;50159;49.426;11.182;2023-07-13T14:59:22;30.10;35.90
11538;DHT22;50159;49.426;11.182;2023-07-13T15:01:50;32.30;32.30
11538;DHT22;50159;49.426;11.182;2023-07-13T15:04:17;33.70;29.60
11538;DHT22;50159;49.426;11.182;2023-07-13T15:06:56;33.00;28.50
11538;DHT22;50159;49.426;11.182;2023-07-13T15:09:26;31.50;29.10
11538;DHT22;50159;49.426;11.182;2023-07-13T15:11:56;30.20;30.10
11538;DHT22;50159;49.426;11.182;2023-07-13T15:14:25;29.10;32.60
11538;DHT22;50159;49.426;11.182;2023-07-13T15:16:54;29.30;33.50
11538;DHT22;50159;49.426;11.182;2023-07-13T15:19:23;30.70;31.70
11538;DHT22;50159;49.426;11.182;2023-07-13T15:21:50;32.20;31.10
11538;DHT22;50159;49.426;11.182;2023-07-13T15:24:18;33.40;28.70
11538;DHT22;50159;49.426;11.182;2023-07-13T15:26:47;34.30;27.10
11538;DHT22;50159;49.426;11.182;2023-07-13T15:29:16;35.00;26.70
11538;DHT22;50159;49.426;11.182;2023-07-13T15:31:44;34.30;26.70
11538;DHT22;50159;49.426;11.182;2023-07-13T15:34:14;32.90;27.50
11538;DHT22;50159;49.426;11.182;2023-07-13T15:36:43;31.40;29.30
11538;DHT22;50159;49.426;11.182;2023-07-13T15:39:15;30.10;31.10
11538;DHT22;50159;49.426;11.182;2023-07-13T15:41:43;29.00;32.10
11538;DHT22;50159;49.426;11.182;2023-07-13T15:46:54;27.60;34.40
11538;DHT22;50159;49.426;11.182;2023-07-13T15:49:21;27.40;36.80
11538;DHT22;50159;49.426;11.182;2023-07-13T15:51:48;27.60;37.20
11538;DHT22;50159;49.426;11.182;2023-07-13T15:54:18;27.80;35.40
11538;DHT22;50159;49.426;11.182;2023-07-13T15:56:52;28.20;34.90
11538;DHT22;50159;49.426;11.182;2023-07-13T15:59:21;28.70;34.10
11538;DHT22;50159;49.426;11.182;2023-07-13T16:01:48;28.80;34.20
11538;DHT22;50159;49.426;11.182;2023-07-13T16:04:16;29.00;34.20
11538;DHT22;50159;49.426;11.182;2023-07-13T16:06:46;28.80;34.30
11538;DHT22;50159;49.426;11.182;2023-07-13T16:09:21;28.40;35.10
11538;DHT22;50159;49.426;11.182;2023-07-13T16:11:50;28.10;34.60
11538;DHT22;50159;49.426;11.182;2023-07-13T16:14:18;27.90;34.70
11538;DHT22;50159;49.426;11.182;2023-07-13T16:16:47;27.80;35.50
11538;DHT22;50159;49.426;11.182;2023-07-13T16:19:16;27.60;36.40
11538;DHT22;50159;49.426;11.182;2023-07-13T16:21:46;27.50;37.20